Aviation Digital Data Service (ADDS)

Output produced by METARs form (1755 UTC 20 January 2019)
found at http://www.aviationweather.gov/metar/data/
 
VCBI 201710Z 04011KT 9999 FEW018 25/20 Q1014 NOSIG
TAF VCBI 201700Z 2018/2124 04010KT 9999 FEW018 TX32/2109Z TN22/2100Z 
     TEMPO 2023/2102 7000